Senai International Airport
WMKJ : now visible

Airfield :











YOU CAN JOIN US ON...

 
LOGIN :

Register | Disclaimer

   EN    FR    IT 

 









Legend :    VFR   Marginal VFR   IFR   Intensive IFR   Very Intensive IFR
Visi :
Ceiling :
>= 8 km
>= 3000ft
5 to 8 km
1000 to 3000 ft
1500m to 5 km
500 to 1000 ft
800 to 1500m
200 to 500 ft
< 800m
< 200 ft
Symbols :   Thunderstorms  Fog  Heavy snow  Heavy precipitations  Wind > 20 kt






- Airport Elevation : 135 ft
- IATA code : JHB


WMKJ - Senai International

CURRENT METAR :
  • 191500Z 00000KT 9999 FEW017CB BKN280 25/24 Q1011

EXPIRED METARs :
  • 191400Z 00000KT 9999 FEW017CB BKN280 26/24 Q1011
  • 191300Z 00000KT 9999 FEW017CB BKN280 26/24 Q1010

TAF TAF WMKJ
Valid from the 19 at 12:00 until the 20 at 12:00 UTC


191100Z 1912/2012 04004KT 9999 FEW018
PROB30
TEMPO 1918/1923 VRB01KT 6000 FEW010
PROB30
TEMPO 2005/2009 4000 TSRA FEW010 FEW017CB



MET'MAP, your aeronautical weather chart ! - Copyright ORBIFLY December 2007 - Disclaimer

ORBIFLY MET'MAP TEAM :

Programming & Development : Alexandra Zaïnal
Concept & Development : Baudouin d'Aumeries
Co-Development & Prog : Marc-Olivier Méhu
Technical & hardware support : Manuel Goepfert

Contact : metmap@orbifly.com




SOURCES & CREDITS :

   NOAA       Earth
Advisory